Terminal Aerodrome Forecast
Issued by NWS

Home | Current Version | Previous Version | Text Only | Print | Product List | Glossary On
Versions: 1 2 3 4 5 6 7 8 9 10 11 12 13 14 15 16 17 18 19 20 21 22 23 24 25
000
FTUS45 KREV 300521
TAFCXP
TAF
KCXP 300521Z 3006/0106 VRB04KT P6SM FEW100 BKN200
     FM300800 VRB03KT P6SM SCT200
     FM301900 08006KT P6SM FEW080 SCT120
     FM302220 20009G16KT P6SM SCT080 SCT120 BKN200
     FM010200 29008KT P6SM SCT120 BKN200
     FM010500 VRB04KT P6SM SCT120 SCT200=

USA.gov is the U.S. government's official web portal to all federal, state and local government web resources and services.